sensor_id;sensor_type;location;lat;lon;timestamp;temperature;humidity
64501;DHT22;50874;24.150;-110.320;2023-02-28T00:00:35;24.60;72.40
64501;DHT22;50874;24.150;-110.320;2023-02-28T00:03:03;24.50;73.10
64501;DHT22;50874;24.150;-110.320;2023-02-28T00:05:30;24.30;72.00
64501;DHT22;50874;24.150;-110.320;2023-02-28T00:07:56;24.10;71.90
64501;DHT22;50874;24.150;-110.320;2023-02-28T00:10:26;24.10;72.00
64501;DHT22;50874;24.150;-110.320;2023-02-28T00:12:54;24.10;71.10
64501;DHT22;50874;24.150;-110.320;2023-02-28T00:15:23;24.10;70.90
64501;DHT22;50874;24.150;-110.320;2023-02-28T00:17:50;23.70;69.90
64501;DHT22;50874;24.150;-110.320;2023-02-28T00:20:16;23.70;70.20
64501;DHT22;50874;24.150;-110.320;2023-02-28T00:22:45;23.70;70.90
64501;DHT22;50874;24.150;-110.320;2023-02-28T00:25:15;23.60;71.10
64501;DHT22;50874;24.150;-110.320;2023-02-28T00:27:42;23.60;70.90
64501;DHT22;50874;24.150;-110.320;2023-02-28T00:30:12;23.60;69.80
64501;DHT22;50874;24.150;-110.320;2023-02-28T00:32:39;23.50;68.60
64501;DHT22;50874;24.150;-110.320;2023-02-28T00:35:06;23.30;67.90
64501;DHT22;50874;24.150;-110.320;2023-02-28T00:37:33;23.30;68.50
64501;DHT22;50874;24.150;-110.320;2023-02-28T00:40:00;23.30;68.00
64501;DHT22;50874;24.150;-110.320;2023-02-28T00:42:26;23.10;67.30
64501;DHT22;50874;24.150;-110.320;2023-02-28T00:44:53;23.00;68.60
64501;DHT22;50874;24.150;-110.320;2023-02-28T00:47:20;23.10;69.10
64501;DHT22;50874;24.150;-110.320;2023-02-28T00:49:46;23.00;67.50
64501;DHT22;50874;24.150;-110.320;2023-02-28T00:52:12;23.00;67.60
64501;DHT22;50874;24.150;-110.320;2023-02-28T00:54:39;22.80;66.40
64501;DHT22;50874;24.150;-110.320;2023-02-28T00:57:05;22.70;66.20
64501;DHT22;50874;24.150;-110.320;2023-02-28T00:59:32;22.60;65.90
64501;DHT22;50874;24.150;-110.320;2023-02-28T01:01:58;22.60;65.00
64501;DHT22;50874;24.150;-110.320;2023-02-28T01:04:25;22.50;63.90
64501;DHT22;50874;24.150;-110.320;2023-02-28T01:06:51;22.40;63.50
64501;DHT22;50874;24.150;-110.320;2023-02-28T01:09:18;22.30;63.00
64501;DHT22;50874;24.150;-110.320;2023-02-28T01:11:44;22.20;63.10
64501;DHT22;50874;24.150;-110.320;2023-02-28T01:14:16;22.00;63.50
64501;DHT22;50874;24.150;-110.320;2023-02-28T01:16:43;21.90;65.20
64501;DHT22;50874;24.150;-110.320;2023-02-28T01:21:53;21.80;66.70
64501;DHT22;50874;24.150;-110.320;2023-02-28T01:24:20;21.70;67.90
64501;DHT22;50874;24.150;-110.320;2023-02-28T01:26:46;21.60;68.70
64501;DHT22;50874;24.150;-110.320;2023-02-28T01:29:13;21.50;69.10
64501;DHT22;50874;24.150;-110.320;2023-02-28T01:31:39;21.30;69.90
64501;DHT22;50874;24.150;-110.320;2023-02-28T01:34:06;21.20;71.30
64501;DHT22;50874;24.150;-110.320;2023-02-28T01:36:32;21.20;72.30
64501;DHT22;50874;24.150;-110.320;2023-02-28T01:38:59;21.10;72.80
64501;DHT22;50874;24.150;-110.320;2023-02-28T01:41:28;21.10;73.70
64501;DHT22;50874;24.150;-110.320;2023-02-28T01:44:53;21.10;74.70
64501;DHT22;50874;24.150;-110.320;2023-02-28T01:46:52;21.00;75.50
64501;DHT22;50874;24.150;-110.320;2023-02-28T01:49:19;21.00;76.40
64501;DHT22;50874;24.150;-110.320;2023-02-28T01:51:51;20.90;77.10
64501;DHT22;50874;24.150;-110.320;2023-02-28T01:54:24;20.80;76.60
64501;DHT22;50874;24.150;-110.320;2023-02-28T01:57:06;20.80;77.40
64501;DHT22;50874;24.150;-110.320;2023-02-28T01:59:41;20.60;76.20
64501;DHT22;50874;24.150;-110.320;2023-02-28T02:02:17;20.60;76.40
64501;DHT22;50874;24.150;-110.320;2023-02-28T02:04:58;20.50;78.90
64501;DHT22;50874;24.150;-110.320;2023-02-28T02:07:31;20.30;79.80
64501;DHT22;50874;24.150;-110.320;2023-02-28T02:10:11;20.20;80.60
64501;DHT22;50874;24.150;-110.320;2023-02-28T02:15:26;20.10;81.30
64501;DHT22;50874;24.150;-110.320;2023-02-28T02:17:59;20.10;81.40
64501;DHT22;50874;24.150;-110.320;2023-02-28T02:20:46;20.10;81.50
64501;DHT22;50874;24.150;-110.320;2023-02-28T02:32:34;19.80;85.60
64501;DHT22;50874;24.150;-110.320;2023-02-28T02:43:34;19.60;90.80
64501;DHT22;50874;24.150;-110.320;2023-02-28T02:46:23;19.60;87.70
64501;DHT22;50874;24.150;-110.320;2023-02-28T02:48:51;19.50;89.00
64501;DHT22;50874;24.150;-110.320;2023-02-28T02:51:21;19.50;92.60
64501;DHT22;50874;24.150;-110.320;2023-02-28T02:53:55;19.50;92.90
64501;DHT22;50874;24.150;-110.320;2023-02-28T02:56:27;19.40;92.40
64501;DHT22;50874;24.150;-110.320;2023-02-28T02:58:57;19.40;93.90
64501;DHT22;50874;24.150;-110.320;2023-02-28T03:01:26;19.40;95.20
64501;DHT22;50874;24.150;-110.320;2023-02-28T03:04:08;19.30;95.80
64501;DHT22;50874;24.150;-110.320;2023-02-28T03:06:35;19.20;95.30
64501;DHT22;50874;24.150;-110.320;2023-02-28T03:09:01;19.10;94.20
64501;DHT22;50874;24.150;-110.320;2023-02-28T03:11:29;19.10;94.00
64501;DHT22;50874;24.150;-110.320;2023-02-28T03:19:45;19.10;93.30
64501;DHT22;50874;24.150;-110.320;2023-02-28T03:25:19;19.00;92.90
64501;DHT22;50874;24.150;-110.320;2023-02-28T03:28:20;19.10;93.30
64501;DHT22;50874;24.150;-110.320;2023-02-28T03:30:55;19.10;93.60
64501;DHT22;50874;24.150;-110.320;2023-02-28T03:33:30;19.10;93.70
64501;DHT22;50874;24.150;-110.320;2023-02-28T03:36:02;19.00;94.40
64501;DHT22;50874;24.150;-110.320;2023-02-28T03:38:38;18.90;94.90
64501;DHT22;50874;24.150;-110.320;2023-02-28T03:41:21;18.90;95.30
64501;DHT22;50874;24.150;-110.320;2023-02-28T03:44:03;18.90;95.40
64501;DHT22;50874;24.150;-110.320;2023-02-28T03:46:36;18.80;95.50
64501;DHT22;50874;24.150;-110.320;2023-02-28T03:49:11;18.80;95.90
64501;DHT22;50874;24.150;-110.320;2023-02-28T03:51:41;18.80;95.70
64501;DHT22;50874;24.150;-110.320;2023-02-28T03:54:13;18.80;96.10
64501;DHT22;50874;24.150;-110.320;2023-02-28T03:56:51;18.70;96.50
64501;DHT22;50874;24.150;-110.320;2023-02-28T03:59:30;18.70;97.00
64501;DHT22;50874;24.150;-110.320;2023-02-28T04:01:59;18.70;97.40
64501;DHT22;50874;24.150;-110.320;2023-02-28T04:04:25;18.60;97.70
64501;DHT22;50874;24.150;-110.320;2023-02-28T04:06:52;18.60;98.10
64501;DHT22;50874;24.150;-110.320;2023-02-28T04:09:26;18.60;98.30
64501;DHT22;50874;24.150;-110.320;2023-02-28T04:11:53;18.60;98.00
64501;DHT22;50874;24.150;-110.320;2023-02-28T04:14:21;18.60;98.10
64501;DHT22;50874;24.150;-110.320;2023-02-28T04:16:48;18.60;98.30
64501;DHT22;50874;24.150;-110.320;2023-02-28T04:19:14;18.50;98.40
64501;DHT22;50874;24.150;-110.320;2023-02-28T04:21:43;18.50;98.60
64501;DHT22;50874;24.150;-110.320;2023-02-28T04:24:13;18.50;98.90
64501;DHT22;50874;24.150;-110.320;2023-02-28T04:26:45;18.50;98.80
64501;DHT22;50874;24.150;-110.320;2023-02-28T04:29:17;18.40;98.70
64501;DHT22;50874;24.150;-110.320;2023-02-28T04:31:44;18.40;99.00
64501;DHT22;50874;24.150;-110.320;2023-02-28T04:34:10;18.40;98.80
64501;DHT22;50874;24.150;-110.320;2023-02-28T04:36:37;18.40;98.90
64501;DHT22;50874;24.150;-110.320;2023-02-28T04:39:03;18.40;98.80
64501;DHT22;50874;24.150;-110.320;2023-02-28T04:41:30;18.40;98.80
64501;DHT22;50874;24.150;-110.320;2023-02-28T04:43:56;18.30;98.70
64501;DHT22;50874;24.150;-110.320;2023-02-28T04:46:23;18.30;98.60
64501;DHT22;50874;24.150;-110.320;2023-02-28T04:48:50;18.30;98.80
64501;DHT22;50874;24.150;-110.320;2023-02-28T04:51:18;18.30;99.00
64501;DHT22;50874;24.150;-110.320;2023-02-28T04:53:45;18.30;99.10
64501;DHT22;50874;24.150;-110.320;2023-02-28T04:56:14;18.30;99.40
64501;DHT22;50874;24.150;-110.320;2023-02-28T04:58:41;18.30;99.60
64501;DHT22;50874;24.150;-110.320;2023-02-28T05:03:45;18.20;99.40
64501;DHT22;50874;24.150;-110.320;2023-02-28T05:06:13;18.20;99.50
64501;DHT22;50874;24.150;-110.320;2023-02-28T05:08:40;18.20;99.30
64501;DHT22;50874;24.150;-110.320;2023-02-28T05:11:24;18.20;99.50
64501;DHT22;50874;24.150;-110.320;2023-02-28T05:13:52;18.20;99.30
64501;DHT22;50874;24.150;-110.320;2023-02-28T05:16:19;18.10;99.30
64501;DHT22;50874;24.150;-110.320;2023-02-28T05:18:46;18.10;99.30
64501;DHT22;50874;24.150;-110.320;2023-02-28T05:21:36;18.10;99.30
64501;DHT22;50874;24.150;-110.320;2023-02-28T05:24:08;18.10;99.20
64501;DHT22;50874;24.150;-110.320;2023-02-28T05:26:37;18.10;99.00
64501;DHT22;50874;24.150;-110.320;2023-02-28T05:29:04;18.10;98.70
64501;DHT22;50874;24.150;-110.320;2023-02-28T05:31:31;18.10;98.70
64501;DHT22;50874;24.150;-110.320;2023-02-28T05:33:58;18.10;98.80
64501;DHT22;50874;24.150;-110.320;2023-02-28T05:36:24;18.10;98.80
64501;DHT22;50874;24.150;-110.320;2023-02-28T05:38:51;18.10;98.80
64501;DHT22;50874;24.150;-110.320;2023-02-28T05:41:19;18.00;98.70
64501;DHT22;50874;24.150;-110.320;2023-02-28T05:43:48;18.00;98.50
64501;DHT22;50874;24.150;-110.320;2023-02-28T05:46:15;18.00;98.50
64501;DHT22;50874;24.150;-110.320;2023-02-28T05:48:45;17.90;98.40
64501;DHT22;50874;24.150;-110.320;2023-02-28T05:51:12;17.90;98.40
64501;DHT22;50874;24.150;-110.320;2023-02-28T05:53:38;17.80;98.50
64501;DHT22;50874;24.150;-110.320;2023-02-28T05:56:06;17.80;98.50
64501;DHT22;50874;24.150;-110.320;2023-02-28T05:58:33;17.70;98.40
64501;DHT22;50874;24.150;-110.320;2023-02-28T06:01:19;17.70;98.10
64501;DHT22;50874;24.150;-110.320;2023-02-28T06:03:45;17.60;97.70
64501;DHT22;50874;24.150;-110.320;2023-02-28T06:06:12;17.60;97.30
64501;DHT22;50874;24.150;-110.320;2023-02-28T06:08:38;17.50;97.10
64501;DHT22;50874;24.150;-110.320;2023-02-28T06:11:05;17.50;97.00
64501;DHT22;50874;24.150;-110.320;2023-02-28T06:13:32;17.30;97.10
64501;DHT22;50874;24.150;-110.320;2023-02-28T06:16:01;17.30;97.20
64501;DHT22;50874;24.150;-110.320;2023-02-28T06:18:27;17.20;97.20
64501;DHT22;50874;24.150;-110.320;2023-02-28T06:20:54;17.20;97.00
64501;DHT22;50874;24.150;-110.320;2023-02-28T06:23:21;17.20;96.90
64501;DHT22;50874;24.150;-110.320;2023-02-28T06:25:48;17.20;97.00
64501;DHT22;50874;24.150;-110.320;2023-02-28T06:28:16;17.10;96.80
64501;DHT22;50874;24.150;-110.320;2023-02-28T06:30:42;17.00;96.70
64501;DHT22;50874;24.150;-110.320;2023-02-28T06:33:08;16.90;96.50
64501;DHT22;50874;24.150;-110.320;2023-02-28T06:35:35;16.70;95.30
64501;DHT22;50874;24.150;-110.320;2023-02-28T06:38:01;16.60;95.20
64501;DHT22;50874;24.150;-110.320;2023-02-28T06:40:28;16.50;95.10
64501;DHT22;50874;24.150;-110.320;2023-02-28T06:42:57;16.50;94.70
64501;DHT22;50874;24.150;-110.320;2023-02-28T06:45:24;16.40;94.40
64501;DHT22;50874;24.150;-110.320;2023-02-28T06:47:52;16.30;94.40
64501;DHT22;50874;24.150;-110.320;2023-02-28T06:50:19;16.20;94.30
64501;DHT22;50874;24.150;-110.320;2023-02-28T06:52:47;16.20;94.30
64501;DHT22;50874;24.150;-110.320;2023-02-28T06:55:13;16.20;94.40
64501;DHT22;50874;24.150;-110.320;2023-02-28T06:57:40;16.10;94.10
64501;DHT22;50874;24.150;-110.320;2023-02-28T07:00:08;16.20;94.20
64501;DHT22;50874;24.150;-110.320;2023-02-28T07:02:36;16.20;94.20
64501;DHT22;50874;24.150;-110.320;2023-02-28T07:05:04;16.20;93.80
64501;DHT22;50874;24.150;-110.320;2023-02-28T07:07:31;16.10;93.40
64501;DHT22;50874;24.150;-110.320;2023-02-28T07:09:58;16.00;93.30
64501;DHT22;50874;24.150;-110.320;2023-02-28T07:12:25;16.00;93.50
64501;DHT22;50874;24.150;-110.320;2023-02-28T07:14:51;15.90;93.60
64501;DHT22;50874;24.150;-110.320;2023-02-28T07:17:17;15.90;93.90
64501;DHT22;50874;24.150;-110.320;2023-02-28T07:19:44;15.90;94.20
64501;DHT22;50874;24.150;-110.320;2023-02-28T07:22:10;15.80;94.50
64501;DHT22;50874;24.150;-110.320;2023-02-28T07:24:37;15.80;94.70
64501;DHT22;50874;24.150;-110.320;2023-02-28T07:27:04;15.70;94.90
64501;DHT22;50874;24.150;-110.320;2023-02-28T07:29:30;15.70;95.20
64501;DHT22;50874;24.150;-110.320;2023-02-28T07:31:57;15.70;95.50
64501;DHT22;50874;24.150;-110.320;2023-02-28T07:34:24;15.60;95.60
64501;DHT22;50874;24.150;-110.320;2023-02-28T07:36:55;15.50;95.80
64501;DHT22;50874;24.150;-110.320;2023-02-28T07:39:22;15.40;95.80
64501;DHT22;50874;24.150;-110.320;2023-02-28T07:41:48;15.30;95.70
64501;DHT22;50874;24.150;-110.320;2023-02-28T07:44:15;15.20;95.50
64501;DHT22;50874;24.150;-110.320;2023-02-28T07:46:41;15.20;95.50
64501;DHT22;50874;24.150;-110.320;2023-02-28T07:49:08;15.20;95.60
64501;DHT22;50874;24.150;-110.320;2023-02-28T07:51:34;15.20;95.70
64501;DHT22;50874;24.150;-110.320;2023-02-28T07:54:01;15.20;95.70
64501;DHT22;50874;24.150;-110.320;2023-02-28T07:56:27;15.10;95.40
64501;DHT22;50874;24.150;-110.320;2023-02-28T07:58:54;15.10;95.50
64501;DHT22;50874;24.150;-110.320;2023-02-28T08:01:20;15.00;95.20
64501;DHT22;50874;24.150;-110.320;2023-02-28T08:03:47;14.90;95.20
64501;DHT22;50874;24.150;-110.320;2023-02-28T08:06:20;14.80;95.20
64501;DHT22;50874;24.150;-110.320;2023-02-28T08:08:47;14.70;94.90
64501;DHT22;50874;24.150;-110.320;2023-02-28T08:11:14;14.60;95.00
64501;DHT22;50874;24.150;-110.320;2023-02-28T08:13:41;14.60;94.90
64501;DHT22;50874;24.150;-110.320;2023-02-28T08:16:10;14.40;94.70
64501;DHT22;50874;24.150;-110.320;2023-02-28T08:18:37;14.50;94.70
64501;DHT22;50874;24.150;-110.320;2023-02-28T08:21:12;14.40;94.30
64501;DHT22;50874;24.150;-110.320;2023-02-28T08:23:39;14.40;94.40
64501;DHT22;50874;24.150;-110.320;2023-02-28T08:26:05;14.40;94.50
64501;DHT22;50874;24.150;-110.320;2023-02-28T08:28:32;14.40;94.50
64501;DHT22;50874;24.150;-110.320;2023-02-28T08:30:59;14.40;94.50
64501;DHT22;50874;24.150;-110.320;2023-02-28T08:33:27;14.40;94.70
64501;DHT22;50874;24.150;-110.320;2023-02-28T08:35:54;14.40;94.90
64501;DHT22;50874;24.150;-110.320;2023-02-28T08:38:21;14.30;95.30
64501;DHT22;50874;24.150;-110.320;2023-02-28T08:40:48;14.20;95.60
64501;DHT22;50874;24.150;-110.320;2023-02-28T08:43:14;14.20;95.90
64501;DHT22;50874;24.150;-110.320;2023-02-28T08:45:41;14.20;96.10
64501;DHT22;50874;24.150;-110.320;2023-02-28T08:48:07;14.20;96.20
64501;DHT22;50874;24.150;-110.320;2023-02-28T08:50:34;14.10;96.40
64501;DHT22;50874;24.150;-110.320;2023-02-28T08:53:00;14.20;96.50
64501;DHT22;50874;24.150;-110.320;2023-02-28T08:55:27;14.10;96.60
64501;DHT22;50874;24.150;-110.320;2023-02-28T08:57:53;14.10;96.70
64501;DHT22;50874;24.150;-110.320;2023-02-28T09:00:21;14.10;96.80
64501;DHT22;50874;24.150;-110.320;2023-02-28T09:02:48;14.10;96.80
64501;DHT22;50874;24.150;-110.320;2023-02-28T09:05:14;14.00;96.80
64501;DHT22;50874;24.150;-110.320;2023-02-28T09:07:41;13.90;97.10
64501;DHT22;50874;24.150;-110.320;2023-02-28T09:10:08;13.90;97.40
64501;DHT22;50874;24.150;-110.320;2023-02-28T09:12:35;13.90;97.70
64501;DHT22;50874;24.150;-110.320;2023-02-28T09:15:02;13.90;98.00
64501;DHT22;50874;24.150;-110.320;2023-02-28T09:17:28;13.90;98.50
64501;DHT22;50874;24.150;-110.320;2023-02-28T09:19:55;13.90;98.90
64501;DHT22;50874;24.150;-110.320;2023-02-28T09:22:21;13.90;99.10
64501;DHT22;50874;24.150;-110.320;2023-02-28T09:24:48;13.90;99.40
64501;DHT22;50874;24.150;-110.320;2023-02-28T09:27:14;13.80;99.90
64501;DHT22;50874;24.150;-110.320;2023-02-28T09:29:41;13.80;99.90
64501;DHT22;50874;24.150;-110.320;2023-02-28T09:32:07;13.80;99.90
64501;DHT22;50874;24.150;-110.320;2023-02-28T09:34:34;13.70;99.90
64501;DHT22;50874;24.150;-110.320;2023-02-28T09:37:02;13.70;99.90
64501;DHT22;50874;24.150;-110.320;2023-02-28T09:39:29;13.70;99.90
64501;DHT22;50874;24.150;-110.320;2023-02-28T09:41:55;13.70;99.90
64501;DHT22;50874;24.150;-110.320;2023-02-28T09:44:41;13.60;99.90
64501;DHT22;50874;24.150;-110.320;2023-02-28T09:49:49;13.50;99.90
64501;DHT22;50874;24.150;-110.320;2023-02-28T09:52:29;13.60;99.90
64501;DHT22;50874;24.150;-110.320;2023-02-28T09:54:59;13.50;99.90
64501;DHT22;50874;24.150;-110.320;2023-02-28T09:57:33;13.50;99.90
64501;DHT22;50874;24.150;-110.320;2023-02-28T10:00:18;13.50;99.90
64501;DHT22;50874;24.150;-110.320;2023-02-28T10:03:03;13.50;99.90
64501;DHT22;50874;24.150;-110.320;2023-02-28T10:05:36;13.40;99.90
64501;DHT22;50874;24.150;-110.320;2023-02-28T10:08:23;13.30;99.90
64501;DHT22;50874;24.150;-110.320;2023-02-28T10:10:55;13.30;99.90
64501;DHT22;50874;24.150;-110.320;2023-02-28T10:16:29;13.30;99.90
64501;DHT22;50874;24.150;-110.320;2023-02-28T10:19:03;13.30;99.90
64501;DHT22;50874;24.150;-110.320;2023-02-28T10:21:34;13.20;99.90
64501;DHT22;50874;24.150;-110.320;2023-02-28T10:24:23;13.20;99.90
64501;DHT22;50874;24.150;-110.320;2023-02-28T10:26:52;13.20;99.90
64501;DHT22;50874;24.150;-110.320;2023-02-28T10:29:23;13.20;99.90
64501;DHT22;50874;24.150;-110.320;2023-02-28T10:31:49;13.10;99.90
64501;DHT22;50874;24.150;-110.320;2023-02-28T10:34:15;13.10;99.90
64501;DHT22;50874;24.150;-110.320;2023-02-28T10:36:42;13.10;99.90
64501;DHT22;50874;24.150;-110.320;2023-02-28T10:39:41;13.10;99.90
64501;DHT22;50874;24.150;-110.320;2023-02-28T10:42:21;13.10;99.90
64501;DHT22;50874;24.150;-110.320;2023-02-28T10:48:02;13.00;99.90
64501;DHT22;50874;24.150;-110.320;2023-02-28T10:50:53;12.90;99.90
64501;DHT22;50874;24.150;-110.320;2023-02-28T11:01:42;12.80;99.90
64501;DHT22;50874;24.150;-110.320;2023-02-28T11:04:36;12.80;99.90
64501;DHT22;50874;24.150;-110.320;2023-02-28T11:07:23;12.80;99.90
64501;DHT22;50874;24.150;-110.320;2023-02-28T11:09:53;12.80;99.90
64501;DHT22;50874;24.150;-110.320;2023-02-28T11:12:30;12.70;99.90
64501;DHT22;50874;24.150;-110.320;2023-02-28T11:15:24;12.70;99.90
64501;DHT22;50874;24.150;-110.320;2023-02-28T11:18:00;12.70;99.90
64501;DHT22;50874;24.150;-110.320;2023-02-28T11:20:30;12.70;99.90
64501;DHT22;50874;24.150;-110.320;2023-02-28T11:22:59;12.60;99.90
64501;DHT22;50874;24.150;-110.320;2023-02-28T11:25:37;12.60;99.90
64501;DHT22;50874;24.150;-110.320;2023-02-28T11:28:08;12.50;99.90
64501;DHT22;50874;24.150;-110.320;2023-02-28T11:36:31;12.40;99.90
64501;DHT22;50874;24.150;-110.320;2023-02-28T11:39:08;12.40;99.90
64501;DHT22;50874;24.150;-110.320;2023-02-28T11:42:09;12.20;99.90
64501;DHT22;50874;24.150;-110.320;2023-02-28T12:01:49;11.80;99.90
64501;DHT22;50874;24.150;-110.320;2023-02-28T12:07:29;11.80;99.90
64501;DHT22;50874;24.150;-110.320;2023-02-28T12:21:36;12.20;99.90
64501;DHT22;50874;24.150;-110.320;2023-02-28T12:26:53;12.30;99.90
64501;DHT22;50874;24.150;-110.320;2023-02-28T12:29:28;12.40;99.90
64501;DHT22;50874;24.150;-110.320;2023-02-28T12:32:04;12.40;99.90
64501;DHT22;50874;24.150;-110.320;2023-02-28T12:34:44;12.40;99.90
64501;DHT22;50874;24.150;-110.320;2023-02-28T12:37:20;12.40;99.90
64501;DHT22;50874;24.150;-110.320;2023-02-28T12:39:52;12.40;99.90
64501;DHT22;50874;24.150;-110.320;2023-02-28T12:42:28;12.40;99.90
64501;DHT22;50874;24.150;-110.320;2023-02-28T12:44:59;12.30;99.90
64501;DHT22;50874;24.150;-110.320;2023-02-28T12:47:27;12.20;99.90
64501;DHT22;50874;24.150;-110.320;2023-02-28T12:50:08;12.20;99.90
64501;DHT22;50874;24.150;-110.320;2023-02-28T12:55:49;12.10;99.90
64501;DHT22;50874;24.150;-110.320;2023-02-28T13:09:39;11.90;99.90
64501;DHT22;50874;24.150;-110.320;2023-02-28T13:12:14;11.70;99.90
64501;DHT22;50874;24.150;-110.320;2023-02-28T13:14:41;11.70;99.90
64501;DHT22;50874;24.150;-110.320;2023-02-28T13:28:13;11.50;99.90
64501;DHT22;50874;24.150;-110.320;2023-02-28T13:33:31;11.50;99.90
64501;DHT22;50874;24.150;-110.320;2023-02-28T13:38:45;11.50;99.90
64501;DHT22;50874;24.150;-110.320;2023-02-28T13:44:13;11.60;99.90
64501;DHT22;50874;24.150;-110.320;2023-02-28T13:52:12;11.60;99.90
64501;DHT22;50874;24.150;-110.320;2023-02-28T14:06:31;11.80;99.90
64501;DHT22;50874;24.150;-110.320;2023-02-28T14:11:44;11.90;99.90
64501;DHT22;50874;24.150;-110.320;2023-02-28T14:17:08;11.90;99.90
64501;DHT22;50874;24.150;-110.320;2023-02-28T14:19:40;12.00;99.90
64501;DHT22;50874;24.150;-110.320;2023-02-28T14:25:22;12.20;99.90
64501;DHT22;50874;24.150;-110.320;2023-02-28T14:27:54;12.30;99.90
64501;DHT22;50874;24.150;-110.320;2023-02-28T14:30:56;12.40;99.90
64501;DHT22;50874;24.150;-110.320;2023-02-28T14:33:57;12.50;99.90
64501;DHT22;50874;24.150;-110.320;2023-02-28T14:36:32;12.70;99.90
64501;DHT22;50874;24.150;-110.320;2023-02-28T14:39:13;12.90;99.90
64501;DHT22;50874;24.150;-110.320;2023-02-28T14:41:42;13.20;99.90
64501;DHT22;50874;24.150;-110.320;2023-02-28T14:44:23;13.50;99.90
64501;DHT22;50874;24.150;-110.320;2023-02-28T14:47:00;13.70;99.90
64501;DHT22;50874;24.150;-110.320;2023-02-28T14:49:44;14.00;99.90
64501;DHT22;50874;24.150;-110.320;2023-02-28T14:52:21;14.40;99.90
64501;DHT22;50874;24.150;-110.320;2023-02-28T14:55:17;15.00;99.90
64501;DHT22;50874;24.150;-110.320;2023-02-28T14:57:55;15.60;99.90
64501;DHT22;50874;24.150;-110.320;2023-02-28T15:00:29;16.00;99.90
64501;DHT22;50874;24.150;-110.320;2023-02-28T15:02:57;16.40;99.30
64501;DHT22;50874;24.150;-110.320;2023-02-28T15:05:30;16.70;98.80
64501;DHT22;50874;24.150;-110.320;2023-02-28T15:08:16;17.00;97.70
64501;DHT22;50874;24.150;-110.320;2023-02-28T15:13:50;17.40;96.40
64501;DHT22;50874;24.150;-110.320;2023-02-28T15:21:37;18.30;96.50
64501;DHT22;50874;24.150;-110.320;2023-02-28T15:27:00;18.90;96.00
64501;DHT22;50874;24.150;-110.320;2023-02-28T15:29:32;19.40;95.30
64501;DHT22;50874;24.150;-110.320;2023-02-28T15:32:04;19.90;94.90
64501;DHT22;50874;24.150;-110.320;2023-02-28T15:34:42;20.50;93.50
64501;DHT22;50874;24.150;-110.320;2023-02-28T15:37:26;20.50;92.30
64501;DHT22;50874;24.150;-110.320;2023-02-28T15:39:55;20.60;92.50
64501;DHT22;50874;24.150;-110.320;2023-02-28T15:42:23;20.70;91.90
64501;DHT22;50874;24.150;-110.320;2023-02-28T15:44:53;20.80;91.70
64501;DHT22;50874;24.150;-110.320;2023-02-28T15:47:25;20.70;91.00
64501;DHT22;50874;24.150;-110.320;2023-02-28T15:50:02;20.80;91.00
64501;DHT22;50874;24.150;-110.320;2023-02-28T15:56:05;20.50;92.20
64501;DHT22;50874;24.150;-110.320;2023-02-28T15:58:35;20.40;92.40
64501;DHT22;50874;24.150;-110.320;2023-02-28T16:03:55;20.00;92.70
64501;DHT22;50874;24.150;-110.320;2023-02-28T16:06:30;20.00;92.90
64501;DHT22;50874;24.150;-110.320;2023-02-28T16:08:58;20.00;93.10
64501;DHT22;50874;24.150;-110.320;2023-02-28T16:11:24;19.90;93.50
64501;DHT22;50874;24.150;-110.320;2023-02-28T16:13:55;19.90;93.40
64501;DHT22;50874;24.150;-110.320;2023-02-28T16:16:24;19.90;93.60
64501;DHT22;50874;24.150;-110.320;2023-02-28T16:19:04;19.80;94.00
64501;DHT22;50874;24.150;-110.320;2023-02-28T16:21:31;19.80;94.20
64501;DHT22;50874;24.150;-110.320;2023-02-28T16:24:07;19.80;94.30
64501;DHT22;50874;24.150;-110.320;2023-02-28T16:30:06;19.90;94.60
64501;DHT22;50874;24.150;-110.320;2023-02-28T16:32:37;20.00;94.70
64501;DHT22;50874;24.150;-110.320;2023-02-28T16:35:05;20.00;95.00
64501;DHT22;50874;24.150;-110.320;2023-02-28T16:38:17;20.10;94.90
64501;DHT22;50874;24.150;-110.320;2023-02-28T16:40:24;20.30;94.90
64501;DHT22;50874;24.150;-110.320;2023-02-28T16:42:52;20.30;94.90
64501;DHT22;50874;24.150;-110.320;2023-02-28T16:45:28;20.50;94.70
64501;DHT22;50874;24.150;-110.320;2023-02-28T16:47:55;20.50;94.40
64501;DHT22;50874;24.150;-110.320;2023-02-28T16:50:27;20.60;94.30
64501;DHT22;50874;24.150;-110.320;2023-02-28T16:52:54;20.70;94.40
64501;DHT22;50874;24.150;-110.320;2023-02-28T16:55:22;20.70;93.60
64501;DHT22;50874;24.150;-110.320;2023-02-28T16:57:54;20.80;94.00
64501;DHT22;50874;24.150;-110.320;2023-02-28T17:00:21;20.90;94.30
64501;DHT22;50874;24.150;-110.320;2023-02-28T17:02:48;20.90;94.00
64501;DHT22;50874;24.150;-110.320;2023-02-28T17:05:15;20.90;94.10
64501;DHT22;50874;24.150;-110.320;2023-02-28T17:07:43;20.90;94.40
64501;DHT22;50874;24.150;-110.320;2023-02-28T17:10:15;21.00;94.40
64501;DHT22;50874;24.150;-110.320;2023-02-28T17:12:43;21.20;94.60
64501;DHT22;50874;24.150;-110.320;2023-02-28T17:15:11;21.30;94.60
64501;DHT22;50874;24.150;-110.320;2023-02-28T17:17:39;21.50;94.70
64501;DHT22;50874;24.150;-110.320;2023-02-28T17:20:06;21.50;94.70
64501;DHT22;50874;24.150;-110.320;2023-02-28T17:22:33;21.70;94.60
64501;DHT22;50874;24.150;-110.320;2023-02-28T17:24:59;21.80;94.60
64501;DHT22;50874;24.150;-110.320;2023-02-28T17:27:26;21.90;94.80
64501;DHT22;50874;24.150;-110.320;2023-02-28T17:29:52;21.90;95.10
64501;DHT22;50874;24.150;-110.320;2023-02-28T17:32:19;22.10;95.00
64501;DHT22;50874;24.150;-110.320;2023-02-28T17:34:45;22.30;94.60
64501;DHT22;50874;24.150;-110.320;2023-02-28T17:37:12;22.20;94.60
64501;DHT22;50874;24.150;-110.320;2023-02-28T17:39:38;22.40;94.60
64501;DHT22;50874;24.150;-110.320;2023-02-28T17:42:05;22.50;94.90
64501;DHT22;50874;24.150;-110.320;2023-02-28T17:44:31;22.50;94.50
64501;DHT22;50874;24.150;-110.320;2023-02-28T17:46:59;22.50;93.50
64501;DHT22;50874;24.150;-110.320;2023-02-28T17:49:25;22.50;94.10
64501;DHT22;50874;24.150;-110.320;2023-02-28T17:51:52;22.50;94.20
64501;DHT22;50874;24.150;-110.320;2023-02-28T17:54:19;22.30;94.50
64501;DHT22;50874;24.150;-110.320;2023-02-28T17:56:46;22.30;94.70
64501;DHT22;50874;24.150;-110.320;2023-02-28T17:59:13;22.20;94.80
64501;DHT22;50874;24.150;-110.320;2023-02-28T18:01:39;22.20;94.80